Etusivu
METAR-TAF:

METAR-TAF

Lentoasemat :

Abilene, Texas, Yhdysvallat

Leveyspiiri: 32-24-37N, Pituuspiiri: 099-40-54W, korkeus merenpinnasta: 545 m

Tämänhetkinen sää

Tämä raportti tehtiin 36 minuuttia sitten, kello 16.52 UTC
Tuuli 19 kn lännestä
Lämpötila 17°C
Kosteus 27%
Ilmanpaine 1014 hPa
Näkyvyys: 16.1 km
selkeää

METAR: KABI 281652Z 28019KT 10SM CLR 17/M02 A2995 RMK AO2 PK WND 29026/1643 SLP122 T01721022

Aika: 12:28 (17:28 UTC)

Sääennuste

Tämä raportti tehtiin 5 tuntia ja 57 minuuttia sitten, kello 11.31 UTC
Ennuste voimassa 28. päivästä klo 12 UTC - 29. päivään klo 12 UTC
Tuuli 17 kn lännestä/luoteesta puuskistuen 24 kn:hen
Näkyvyys: 10 km
Hajanaisia pilviä 25000 ft:n korkeudessa
From 28. päivästä klo 2300 UTC
Tuuli 14 kn lännestä puuskistuen 22 kn:hen
Näkyvyys: 10 km
selkeää
From 29. päivästä klo 0100 UTC
Tuuli 7 kn lännestä
Näkyvyys: 10 km
selkeää

TAF: KABI 281131Z 2812/2912 29017G24KT P6SM SCT250 FM282300 28014G22KT P6SM SKC FM290100 26007KT P6SM SKC

Säähavainnot ja -ennusteet yli 4000 lentoasemalta (METAR- ja TAF-raportit).

Käytössä olevat sääasemat on merkitty karttaan keltaisilla ja punaisilla pisteillä.

Aseta hiiri pisteen päälle nähdäksesi sääaseman nimen.

Klikkaa sitten nähdäksesi säähavainnot ja -ennusteet.

Kartan vaihtaminen: klikkaa mustalla rastilla varustettuja vihreitä pisteitä, niin voit zoomata sisään; viivalla varustettua vihreää pistettä, niin voit zoomata ulos tai vihreitä nuolia, niin pääset viereisille kartoille.


METAR-TAF: